sensor_id;sensor_type;location;lat;lon;timestamp;temperature;humidity
3868;DHT22;1949;48.152;11.528;2023-02-25T00:01:41;11.30;48.50
3868;DHT22;1949;48.152;11.528;2023-02-25T00:04:19;11.30;48.30
3868;DHT22;1949;48.152;11.528;2023-02-25T00:06:51;11.30;48.30
3868;DHT22;1949;48.152;11.528;2023-02-25T00:09:29;11.30;48.60
3868;DHT22;1949;48.152;11.528;2023-02-25T00:12:01;11.20;48.10
3868;DHT22;1949;48.152;11.528;2023-02-25T00:14:36;11.20;48.00
3868;DHT22;1949;48.152;11.528;2023-02-25T00:17:02;11.20;48.00
3868;DHT22;1949;48.152;11.528;2023-02-25T00:19:29;11.20;48.70
3868;DHT22;1949;48.152;11.528;2023-02-25T00:22:10;11.20;48.10
3868;DHT22;1949;48.152;11.528;2023-02-25T00:24:41;11.20;48.10
3868;DHT22;1949;48.152;11.528;2023-02-25T00:27:13;11.20;48.10
3868;DHT22;1949;48.152;11.528;2023-02-25T00:29:42;11.30;48.10
3868;DHT22;1949;48.152;11.528;2023-02-25T00:32:07;11.30;48.10
3868;DHT22;1949;48.152;11.528;2023-02-25T00:34:34;11.30;48.00
3868;DHT22;1949;48.152;11.528;2023-02-25T00:37:03;11.30;47.80
3868;DHT22;1949;48.152;11.528;2023-02-25T00:39:29;11.30;47.70
3868;DHT22;1949;48.152;11.528;2023-02-25T00:42:12;11.30;47.70
3868;DHT22;1949;48.152;11.528;2023-02-25T00:44:45;11.30;47.80
3868;DHT22;1949;48.152;11.528;2023-02-25T00:47:18;11.30;47.70
3868;DHT22;1949;48.152;11.528;2023-02-25T00:49:45;11.30;47.80
3868;DHT22;1949;48.152;11.528;2023-02-25T00:52:16;11.30;47.90
3868;DHT22;1949;48.152;11.528;2023-02-25T00:54:44;11.30;47.80
3868;DHT22;1949;48.152;11.528;2023-02-25T00:57:11;11.40;47.70
3868;DHT22;1949;48.152;11.528;2023-02-25T00:59:40;11.30;47.40
3868;DHT22;1949;48.152;11.528;2023-02-25T01:02:06;11.30;47.40
3868;DHT22;1949;48.152;11.528;2023-02-25T01:04:35;11.30;47.40
3868;DHT22;1949;48.152;11.528;2023-02-25T01:07:02;11.30;47.30
3868;DHT22;1949;48.152;11.528;2023-02-25T01:09:30;11.30;47.30
3868;DHT22;1949;48.152;11.528;2023-02-25T01:11:57;11.20;46.80
3868;DHT22;1949;48.152;11.528;2023-02-25T01:14:25;11.10;47.20
3868;DHT22;1949;48.152;11.528;2023-02-25T01:16:52;11.10;47.30
3868;DHT22;1949;48.152;11.528;2023-02-25T01:19:21;11.00;47.20
3868;DHT22;1949;48.152;11.528;2023-02-25T01:21:49;10.90;46.70
3868;DHT22;1949;48.152;11.528;2023-02-25T01:24:24;10.80;46.60
3868;DHT22;1949;48.152;11.528;2023-02-25T01:26:53;10.60;46.40
3868;DHT22;1949;48.152;11.528;2023-02-25T01:29:23;10.40;46.60
3868;DHT22;1949;48.152;11.528;2023-02-25T01:31:58;10.20;46.80
3868;DHT22;1949;48.152;11.528;2023-02-25T01:34:26;10.10;46.70
3868;DHT22;1949;48.152;11.528;2023-02-25T01:36:54;10.00;46.80
3868;DHT22;1949;48.152;11.528;2023-02-25T01:39:22;9.80;47.60
3868;DHT22;1949;48.152;11.528;2023-02-25T01:41:50;9.70;48.20
3868;DHT22;1949;48.152;11.528;2023-02-25T01:44:20;9.60;48.10
3868;DHT22;1949;48.152;11.528;2023-02-25T01:46:51;9.60;48.10
3868;DHT22;1949;48.152;11.528;2023-02-25T01:49:21;9.50;48.30
3868;DHT22;1949;48.152;11.528;2023-02-25T01:51:57;9.50;48.30
3868;DHT22;1949;48.152;11.528;2023-02-25T01:54:24;9.40;48.20
3868;DHT22;1949;48.152;11.528;2023-02-25T01:56:53;9.40;48.40
3868;DHT22;1949;48.152;11.528;2023-02-25T01:59:23;9.40;48.70
3868;DHT22;1949;48.152;11.528;2023-02-25T02:01:55;9.50;48.60
3868;DHT22;1949;48.152;11.528;2023-02-25T02:04:21;9.30;48.50
3868;DHT22;1949;48.152;11.528;2023-02-25T02:06:48;9.40;48.60
3868;DHT22;1949;48.152;11.528;2023-02-25T02:09:19;9.30;48.20
3868;DHT22;1949;48.152;11.528;2023-02-25T02:11:47;9.30;48.40
3868;DHT22;1949;48.152;11.528;2023-02-25T02:14:19;9.20;48.30
3868;DHT22;1949;48.152;11.528;2023-02-25T02:17:01;9.30;48.70
3868;DHT22;1949;48.152;11.528;2023-02-25T02:25:37;9.10;48.20
3868;DHT22;1949;48.152;11.528;2023-02-25T02:38:24;9.10;48.80
3868;DHT22;1949;48.152;11.528;2023-02-25T02:40:53;9.10;49.10
3868;DHT22;1949;48.152;11.528;2023-02-25T02:43:32;9.10;48.60
3868;DHT22;1949;48.152;11.528;2023-02-25T02:46:22;9.10;48.50
3868;DHT22;1949;48.152;11.528;2023-02-25T02:49:14;9.00;48.40
3868;DHT22;1949;48.152;11.528;2023-02-25T02:52:20;9.00;48.50
3868;DHT22;1949;48.152;11.528;2023-02-25T02:54:46;8.90;48.70
3868;DHT22;1949;48.152;11.528;2023-02-25T02:57:15;9.00;48.90
3868;DHT22;1949;48.152;11.528;2023-02-25T02:59:48;9.10;48.80
3868;DHT22;1949;48.152;11.528;2023-02-25T03:02:30;9.00;48.40
3868;DHT22;1949;48.152;11.528;2023-02-25T03:05:03;8.90;48.50
3868;DHT22;1949;48.152;11.528;2023-02-25T03:07:33;8.90;48.30
3868;DHT22;1949;48.152;11.528;2023-02-25T03:10:03;8.70;48.20
3868;DHT22;1949;48.152;11.528;2023-02-25T03:12:32;8.70;48.50
3868;DHT22;1949;48.152;11.528;2023-02-25T03:15:05;8.60;48.40
3868;DHT22;1949;48.152;11.528;2023-02-25T03:17:40;8.60;48.50
3868;DHT22;1949;48.152;11.528;2023-02-25T03:22:50;8.50;48.60
3868;DHT22;1949;48.152;11.528;2023-02-25T03:25:39;8.50;48.70
3868;DHT22;1949;48.152;11.528;2023-02-25T03:28:28;8.40;48.70
3868;DHT22;1949;48.152;11.528;2023-02-25T03:31:05;8.40;48.50
3868;DHT22;1949;48.152;11.528;2023-02-25T03:33:47;8.40;48.70
3868;DHT22;1949;48.152;11.528;2023-02-25T03:36:18;8.40;49.00
3868;DHT22;1949;48.152;11.528;2023-02-25T03:38:50;8.40;48.80
3868;DHT22;1949;48.152;11.528;2023-02-25T03:41:18;8.40;48.90
3868;DHT22;1949;48.152;11.528;2023-02-25T03:43:52;8.40;48.90
3868;DHT22;1949;48.152;11.528;2023-02-25T03:46:23;8.50;49.10
3868;DHT22;1949;48.152;11.528;2023-02-25T03:48:50;8.50;49.00
3868;DHT22;1949;48.152;11.528;2023-02-25T03:51:28;8.50;49.10
3868;DHT22;1949;48.152;11.528;2023-02-25T03:54:00;8.70;49.10
3868;DHT22;1949;48.152;11.528;2023-02-25T03:56:28;8.60;49.70
3868;DHT22;1949;48.152;11.528;2023-02-25T03:58:53;8.70;48.90
3868;DHT22;1949;48.152;11.528;2023-02-25T04:01:24;8.60;48.80
3868;DHT22;1949;48.152;11.528;2023-02-25T04:03:55;8.60;48.70
3868;DHT22;1949;48.152;11.528;2023-02-25T04:06:24;8.60;48.90
3868;DHT22;1949;48.152;11.528;2023-02-25T04:08:52;8.60;49.30
3868;DHT22;1949;48.152;11.528;2023-02-25T04:11:20;8.60;48.90
3868;DHT22;1949;48.152;11.528;2023-02-25T04:13:46;8.60;49.40
3868;DHT22;1949;48.152;11.528;2023-02-25T04:16:11;8.70;49.10
3868;DHT22;1949;48.152;11.528;2023-02-25T04:18:39;8.70;48.80
3868;DHT22;1949;48.152;11.528;2023-02-25T04:21:06;8.70;48.80
3868;DHT22;1949;48.152;11.528;2023-02-25T04:23:34;8.70;48.90
3868;DHT22;1949;48.152;11.528;2023-02-25T04:26:01;8.60;48.90
3868;DHT22;1949;48.152;11.528;2023-02-25T04:28:27;8.70;49.10
3868;DHT22;1949;48.152;11.528;2023-02-25T04:30:52;8.70;48.90
3868;DHT22;1949;48.152;11.528;2023-02-25T04:33:19;8.70;48.80
3868;DHT22;1949;48.152;11.528;2023-02-25T04:35:45;8.70;48.90
3868;DHT22;1949;48.152;11.528;2023-02-25T04:38:10;8.70;49.10
3868;DHT22;1949;48.152;11.528;2023-02-25T04:40:38;8.80;49.30
3868;DHT22;1949;48.152;11.528;2023-02-25T04:43:05;8.90;49.10
3868;DHT22;1949;48.152;11.528;2023-02-25T04:45:30;8.90;48.80
3868;DHT22;1949;48.152;11.528;2023-02-25T04:47:56;8.90;48.90
3868;DHT22;1949;48.152;11.528;2023-02-25T04:50:25;8.80;48.70
3868;DHT22;1949;48.152;11.528;2023-02-25T04:52:53;8.80;48.90
3868;DHT22;1949;48.152;11.528;2023-02-25T04:55:19;8.90;49.00
3868;DHT22;1949;48.152;11.528;2023-02-25T04:57:46;8.80;49.00
3868;DHT22;1949;48.152;11.528;2023-02-25T05:00:16;8.90;49.20
3868;DHT22;1949;48.152;11.528;2023-02-25T05:02:47;9.00;49.50
3868;DHT22;1949;48.152;11.528;2023-02-25T05:05:16;9.10;49.40
3868;DHT22;1949;48.152;11.528;2023-02-25T05:07:43;9.20;49.10
3868;DHT22;1949;48.152;11.528;2023-02-25T05:10:11;9.20;48.70
3868;DHT22;1949;48.152;11.528;2023-02-25T05:12:37;9.10;49.30
3868;DHT22;1949;48.152;11.528;2023-02-25T05:15:04;9.10;48.70
3868;DHT22;1949;48.152;11.528;2023-02-25T05:17:32;9.10;48.70
3868;DHT22;1949;48.152;11.528;2023-02-25T05:19:58;9.10;48.80
3868;DHT22;1949;48.152;11.528;2023-02-25T05:22:33;9.10;48.80
3868;DHT22;1949;48.152;11.528;2023-02-25T05:24:59;9.10;49.00
3868;DHT22;1949;48.152;11.528;2023-02-25T05:27:27;9.10;48.90
3868;DHT22;1949;48.152;11.528;2023-02-25T05:29:54;9.10;49.00
3868;DHT22;1949;48.152;11.528;2023-02-25T05:32:20;9.10;49.10
3868;DHT22;1949;48.152;11.528;2023-02-25T05:34:48;9.20;49.30
3868;DHT22;1949;48.152;11.528;2023-02-25T05:37:18;9.30;49.80
3868;DHT22;1949;48.152;11.528;2023-02-25T05:39:46;9.40;48.90
3868;DHT22;1949;48.152;11.528;2023-02-25T05:42:12;9.40;48.70
3868;DHT22;1949;48.152;11.528;2023-02-25T05:44:37;9.40;48.70
3868;DHT22;1949;48.152;11.528;2023-02-25T05:47:10;9.20;48.50
3868;DHT22;1949;48.152;11.528;2023-02-25T05:49:41;9.20;48.70
3868;DHT22;1949;48.152;11.528;2023-02-25T05:52:07;9.10;48.50
3868;DHT22;1949;48.152;11.528;2023-02-25T05:54:34;9.10;48.70
3868;DHT22;1949;48.152;11.528;2023-02-25T05:57:04;9.10;49.10
3868;DHT22;1949;48.152;11.528;2023-02-25T05:59:34;9.20;48.90
3868;DHT22;1949;48.152;11.528;2023-02-25T06:02:03;9.20;48.70
3868;DHT22;1949;48.152;11.528;2023-02-25T06:04:30;9.10;49.00
3868;DHT22;1949;48.152;11.528;2023-02-25T06:07:01;9.20;49.20
3868;DHT22;1949;48.152;11.528;2023-02-25T06:09:29;9.20;48.90
3868;DHT22;1949;48.152;11.528;2023-02-25T06:11:59;9.20;48.80
3868;DHT22;1949;48.152;11.528;2023-02-25T06:14:25;9.30;49.00
3868;DHT22;1949;48.152;11.528;2023-02-25T06:16:51;9.40;49.10
3868;DHT22;1949;48.152;11.528;2023-02-25T06:19:57;9.40;49.00
3868;DHT22;1949;48.152;11.528;2023-02-25T06:22:23;9.40;48.60
3868;DHT22;1949;48.152;11.528;2023-02-25T06:24:51;9.50;48.70
3868;DHT22;1949;48.152;11.528;2023-02-25T06:27:18;9.40;48.50
3868;DHT22;1949;48.152;11.528;2023-02-25T06:29:50;9.40;48.60
3868;DHT22;1949;48.152;11.528;2023-02-25T06:32:21;9.40;48.40
3868;DHT22;1949;48.152;11.528;2023-02-25T06:34:49;9.40;48.40
3868;DHT22;1949;48.152;11.528;2023-02-25T06:37:22;9.40;48.60
3868;DHT22;1949;48.152;11.528;2023-02-25T06:39:48;9.40;48.70
3868;DHT22;1949;48.152;11.528;2023-02-25T06:42:15;9.40;48.60
3868;DHT22;1949;48.152;11.528;2023-02-25T06:44:41;9.40;48.70
3868;DHT22;1949;48.152;11.528;2023-02-25T06:47:10;9.50;48.70
3868;DHT22;1949;48.152;11.528;2023-02-25T06:49:37;9.50;48.70
3868;DHT22;1949;48.152;11.528;2023-02-25T06:52:03;9.60;48.80
3868;DHT22;1949;48.152;11.528;2023-02-25T06:54:32;9.60;48.70
3868;DHT22;1949;48.152;11.528;2023-02-25T06:56:58;9.70;48.70
3868;DHT22;1949;48.152;11.528;2023-02-25T06:59:25;9.70;48.60
3868;DHT22;1949;48.152;11.528;2023-02-25T07:01:51;9.80;48.60
3868;DHT22;1949;48.152;11.528;2023-02-25T07:04:18;9.80;48.70
3868;DHT22;1949;48.152;11.528;2023-02-25T07:06:45;9.90;48.60
3868;DHT22;1949;48.152;11.528;2023-02-25T07:09:11;10.00;47.90
3868;DHT22;1949;48.152;11.528;2023-02-25T07:11:38;10.00;47.70
3868;DHT22;1949;48.152;11.528;2023-02-25T07:14:06;10.00;47.50
3868;DHT22;1949;48.152;11.528;2023-02-25T07:16:31;10.10;47.30
3868;DHT22;1949;48.152;11.528;2023-02-25T07:19:00;10.00;47.10
3868;DHT22;1949;48.152;11.528;2023-02-25T07:21:29;10.00;47.30
3868;DHT22;1949;48.152;11.528;2023-02-25T07:23:56;9.90;48.00
3868;DHT22;1949;48.152;11.528;2023-02-25T07:26:22;9.90;47.90
3868;DHT22;1949;48.152;11.528;2023-02-25T07:28:57;9.80;48.00
3868;DHT22;1949;48.152;11.528;2023-02-25T07:31:25;9.70;47.90
3868;DHT22;1949;48.152;11.528;2023-02-25T07:33:53;9.70;48.10
3868;DHT22;1949;48.152;11.528;2023-02-25T07:36:20;9.60;48.20
3868;DHT22;1949;48.152;11.528;2023-02-25T07:38:55;9.50;48.10
3868;DHT22;1949;48.152;11.528;2023-02-25T07:41:23;9.50;48.20
3868;DHT22;1949;48.152;11.528;2023-02-25T07:43:50;9.40;48.00
3868;DHT22;1949;48.152;11.528;2023-02-25T07:46:17;9.40;48.50
3868;DHT22;1949;48.152;11.528;2023-02-25T07:48:42;9.40;48.70
3868;DHT22;1949;48.152;11.528;2023-02-25T07:51:17;9.60;49.00
3868;DHT22;1949;48.152;11.528;2023-02-25T07:53:46;9.70;48.90
3868;DHT22;1949;48.152;11.528;2023-02-25T07:56:14;9.70;48.60
3868;DHT22;1949;48.152;11.528;2023-02-25T07:58:41;9.80;48.50
3868;DHT22;1949;48.152;11.528;2023-02-25T08:01:11;9.80;48.30
3868;DHT22;1949;48.152;11.528;2023-02-25T08:03:40;9.80;48.20
3868;DHT22;1949;48.152;11.528;2023-02-25T08:06:06;9.90;48.40
3868;DHT22;1949;48.152;11.528;2023-02-25T08:08:36;9.90;48.30
3868;DHT22;1949;48.152;11.528;2023-02-25T08:11:09;9.90;48.00
3868;DHT22;1949;48.152;11.528;2023-02-25T08:13:41;9.90;48.10
3868;DHT22;1949;48.152;11.528;2023-02-25T08:16:10;9.80;47.90
3868;DHT22;1949;48.152;11.528;2023-02-25T08:18:36;9.80;48.00
3868;DHT22;1949;48.152;11.528;2023-02-25T08:21:04;9.70;48.00
3868;DHT22;1949;48.152;11.528;2023-02-25T08:23:30;9.70;47.90
3868;DHT22;1949;48.152;11.528;2023-02-25T08:25:58;9.70;47.80
3868;DHT22;1949;48.152;11.528;2023-02-25T08:28:25;9.70;48.00
3868;DHT22;1949;48.152;11.528;2023-02-25T08:30:52;9.80;48.00
3868;DHT22;1949;48.152;11.528;2023-02-25T08:33:20;9.70;48.00
3868;DHT22;1949;48.152;11.528;2023-02-25T08:35:46;9.80;48.10
3868;DHT22;1949;48.152;11.528;2023-02-25T08:38:12;9.80;47.80
3868;DHT22;1949;48.152;11.528;2023-02-25T08:40:39;9.80;47.80
3868;DHT22;1949;48.152;11.528;2023-02-25T08:43:06;9.80;47.80
3868;DHT22;1949;48.152;11.528;2023-02-25T08:45:33;9.80;47.50
3868;DHT22;1949;48.152;11.528;2023-02-25T08:47:59;9.70;47.50
3868;DHT22;1949;48.152;11.528;2023-02-25T08:50:26;9.70;47.60
3868;DHT22;1949;48.152;11.528;2023-02-25T08:52:52;9.70;47.60
3868;DHT22;1949;48.152;11.528;2023-02-25T08:55:22;9.70;47.70
3868;DHT22;1949;48.152;11.528;2023-02-25T08:57:52;9.80;47.70
3868;DHT22;1949;48.152;11.528;2023-02-25T09:00:20;9.80;47.80
3868;DHT22;1949;48.152;11.528;2023-02-25T09:02:46;9.90;47.80
3868;DHT22;1949;48.152;11.528;2023-02-25T09:05:15;9.90;47.70
3868;DHT22;1949;48.152;11.528;2023-02-25T09:07:42;9.90;47.40
3868;DHT22;1949;48.152;11.528;2023-02-25T09:10:09;10.00;46.40
3868;DHT22;1949;48.152;11.528;2023-02-25T09:12:35;9.90;47.30
3868;DHT22;1949;48.152;11.528;2023-02-25T09:15:06;9.90;47.10
3868;DHT22;1949;48.152;11.528;2023-02-25T09:17:44;9.90;47.10
3868;DHT22;1949;48.152;11.528;2023-02-25T09:20:10;9.90;47.10
3868;DHT22;1949;48.152;11.528;2023-02-25T09:22:38;9.80;47.10
3868;DHT22;1949;48.152;11.528;2023-02-25T09:25:13;9.80;47.10
3868;DHT22;1949;48.152;11.528;2023-02-25T09:27:41;9.90;47.00
3868;DHT22;1949;48.152;11.528;2023-02-25T09:30:14;9.90;47.00
3868;DHT22;1949;48.152;11.528;2023-02-25T09:32:41;9.80;46.80
3868;DHT22;1949;48.152;11.528;2023-02-25T09:35:07;9.80;46.80
3868;DHT22;1949;48.152;11.528;2023-02-25T09:37:33;9.90;47.70
3868;DHT22;1949;48.152;11.528;2023-02-25T09:40:00;9.90;46.90
3868;DHT22;1949;48.152;11.528;2023-02-25T09:43:02;10.00;46.00
3868;DHT22;1949;48.152;11.528;2023-02-25T09:45:32;10.10;45.90
3868;DHT22;1949;48.152;11.528;2023-02-25T09:48:03;9.90;46.40
3868;DHT22;1949;48.152;11.528;2023-02-25T09:50:38;10.10;45.50
3868;DHT22;1949;48.152;11.528;2023-02-25T09:55:47;9.90;46.10
3868;DHT22;1949;48.152;11.528;2023-02-25T09:58:23;9.90;46.20
3868;DHT22;1949;48.152;11.528;2023-02-25T10:00:56;9.90;46.20
3868;DHT22;1949;48.152;11.528;2023-02-25T10:06:16;9.80;46.30
3868;DHT22;1949;48.152;11.528;2023-02-25T10:11:40;9.90;46.10
3868;DHT22;1949;48.152;11.528;2023-02-25T10:14:21;9.90;46.10
3868;DHT22;1949;48.152;11.528;2023-02-25T10:25:32;9.80;45.70
3868;DHT22;1949;48.152;11.528;2023-02-25T10:28:03;9.80;45.70
3868;DHT22;1949;48.152;11.528;2023-02-25T10:33:25;9.70;45.50
3868;DHT22;1949;48.152;11.528;2023-02-25T10:36:02;9.80;45.80
3868;DHT22;1949;48.152;11.528;2023-02-25T10:38:31;9.80;45.60
3868;DHT22;1949;48.152;11.528;2023-02-25T10:40:59;9.80;45.70
3868;DHT22;1949;48.152;11.528;2023-02-25T10:43:26;9.80;45.50
3868;DHT22;1949;48.152;11.528;2023-02-25T10:46:03;9.80;45.60
3868;DHT22;1949;48.152;11.528;2023-02-25T10:48:34;9.90;45.50
3868;DHT22;1949;48.152;11.528;2023-02-25T10:53:32;10.00;44.30
3868;DHT22;1949;48.152;11.528;2023-02-25T10:56:02;10.00;44.30
3868;DHT22;1949;48.152;11.528;2023-02-25T10:58:42;10.10;44.30
3868;DHT22;1949;48.152;11.528;2023-02-25T11:01:19;10.20;44.40
3868;DHT22;1949;48.152;11.528;2023-02-25T11:03:54;10.10;44.00
3868;DHT22;1949;48.152;11.528;2023-02-25T11:06:32;10.10;43.80
3868;DHT22;1949;48.152;11.528;2023-02-25T11:11:58;10.20;44.30
3868;DHT22;1949;48.152;11.528;2023-02-25T11:14:32;10.30;43.90
3868;DHT22;1949;48.152;11.528;2023-02-25T11:19:36;10.30;43.90
3868;DHT22;1949;48.152;11.528;2023-02-25T11:22:17;10.30;44.00
3868;DHT22;1949;48.152;11.528;2023-02-25T11:24:56;10.30;43.80
3868;DHT22;1949;48.152;11.528;2023-02-25T11:27:39;10.40;44.00
3868;DHT22;1949;48.152;11.528;2023-02-25T11:32:49;10.40;43.50
3868;DHT22;1949;48.152;11.528;2023-02-25T11:35:25;10.40;43.30
3868;DHT22;1949;48.152;11.528;2023-02-25T11:37:56;10.40;43.60
3868;DHT22;1949;48.152;11.528;2023-02-25T11:40:32;10.40;43.40
3868;DHT22;1949;48.152;11.528;2023-02-25T11:45:33;10.40;43.00
3868;DHT22;1949;48.152;11.528;2023-02-25T11:48:01;10.30;42.80
3868;DHT22;1949;48.152;11.528;2023-02-25T11:56:16;10.30;43.40
3868;DHT22;1949;48.152;11.528;2023-02-25T11:59:04;10.30;43.20
3868;DHT22;1949;48.152;11.528;2023-02-25T12:07:54;10.10;42.80
3868;DHT22;1949;48.152;11.528;2023-02-25T12:10:54;10.10;42.80
3868;DHT22;1949;48.152;11.528;2023-02-25T12:45:35;10.80;42.20
3868;DHT22;1949;48.152;11.528;2023-02-25T13:14:20;11.60;41.60
3868;DHT22;1949;48.152;11.528;2023-02-25T13:38:01;13.00;40.20
3868;DHT22;1949;48.152;11.528;2023-02-25T13:41:29;12.90;39.50
3868;DHT22;1949;48.152;11.528;2023-02-25T13:53:31;12.20;39.70
3868;DHT22;1949;48.152;11.528;2023-02-25T14:15:50;11.20;40.00
3868;DHT22;1949;48.152;11.528;2023-02-25T14:24:27;11.10;39.80
3868;DHT22;1949;48.152;11.528;2023-02-25T14:29:30;11.10;40.20
3868;DHT22;1949;48.152;11.528;2023-02-25T14:40:21;11.00;39.80
3868;DHT22;1949;48.152;11.528;2023-02-25T14:45:49;11.00;40.00
3868;DHT22;1949;48.152;11.528;2023-02-25T14:48:27;11.10;39.70
3868;DHT22;1949;48.152;11.528;2023-02-25T15:03:53;10.90;39.50
3868;DHT22;1949;48.152;11.528;2023-02-25T15:06:18;10.80;40.30
3868;DHT22;1949;48.152;11.528;2023-02-25T15:17:32;10.60;39.90
3868;DHT22;1949;48.152;11.528;2023-02-25T15:23:15;10.60;40.00
3868;DHT22;1949;48.152;11.528;2023-02-25T15:28:44;10.70;40.00
3868;DHT22;1949;48.152;11.528;2023-02-25T15:33:54;10.70;40.00
3868;DHT22;1949;48.152;11.528;2023-02-25T15:36:42;10.70;39.70
3868;DHT22;1949;48.152;11.528;2023-02-25T15:42:13;10.60;39.60
3868;DHT22;1949;48.152;11.528;2023-02-25T15:44:41;10.60;39.60
3868;DHT22;1949;48.152;11.528;2023-02-25T15:47:26;10.50;39.60
3868;DHT22;1949;48.152;11.528;2023-02-25T15:49:54;10.50;39.60
3868;DHT22;1949;48.152;11.528;2023-02-25T15:55:36;10.50;39.60
3868;DHT22;1949;48.152;11.528;2023-02-25T16:00:59;10.50;39.40
3868;DHT22;1949;48.152;11.528;2023-02-25T16:12:57;10.40;39.70
3868;DHT22;1949;48.152;11.528;2023-02-25T16:15:38;10.40;39.50
3868;DHT22;1949;48.152;11.528;2023-02-25T16:21:16;10.40;39.60
3868;DHT22;1949;48.152;11.528;2023-02-25T16:24:09;10.40;39.60
3868;DHT22;1949;48.152;11.528;2023-02-25T16:26:57;10.40;39.40
3868;DHT22;1949;48.152;11.528;2023-02-25T16:40:35;10.40;39.60
3868;DHT22;1949;48.152;11.528;2023-02-25T16:43:04;10.40;39.40
3868;DHT22;1949;48.152;11.528;2023-02-25T16:48:33;10.40;39.50
3868;DHT22;1949;48.152;11.528;2023-02-25T16:54:23;10.40;39.40
3868;DHT22;1949;48.152;11.528;2023-02-25T16:56:57;10.40;39.30
3868;DHT22;1949;48.152;11.528;2023-02-25T16:59:33;10.30;39.30
3868;DHT22;1949;48.152;11.528;2023-02-25T17:02:23;10.30;39.40
3868;DHT22;1949;48.152;11.528;2023-02-25T17:04:53;10.30;39.40
3868;DHT22;1949;48.152;11.528;2023-02-25T17:07:28;10.40;39.30
3868;DHT22;1949;48.152;11.528;2023-02-25T17:10:02;10.30;39.30
3868;DHT22;1949;48.152;11.528;2023-02-25T17:12:41;10.30;39.30
3868;DHT22;1949;48.152;11.528;2023-02-25T17:15:30;10.30;39.40
3868;DHT22;1949;48.152;11.528;2023-02-25T17:18:30;10.30;39.60
3868;DHT22;1949;48.152;11.528;2023-02-25T17:21:04;10.40;39.40
3868;DHT22;1949;48.152;11.528;2023-02-25T17:23:37;10.40;39.40
3868;DHT22;1949;48.152;11.528;2023-02-25T17:26:05;10.30;39.30
3868;DHT22;1949;48.152;11.528;2023-02-25T17:28:31;10.30;39.30
3868;DHT22;1949;48.152;11.528;2023-02-25T17:31:17;10.30;39.30
3868;DHT22;1949;48.152;11.528;2023-02-25T17:33:50;10.30;39.50
3868;DHT22;1949;48.152;11.528;2023-02-25T17:36:25;10.30;39.60
3868;DHT22;1949;48.152;11.528;2023-02-25T17:38:56;10.30;39.50
3868;DHT22;1949;48.152;11.528;2023-02-25T17:41:23;10.40;39.50
3868;DHT22;1949;48.152;11.528;2023-02-25T17:43:50;10.30;39.60
3868;DHT22;1949;48.152;11.528;2023-02-25T17:46:29;10.40;39.50
3868;DHT22;1949;48.152;11.528;2023-02-25T17:49:24;10.40;39.40
3868;DHT22;1949;48.152;11.528;2023-02-25T17:51:59;10.50;39.60
3868;DHT22;1949;48.152;11.528;2023-02-25T17:54:27;10.40;39.70
3868;DHT22;1949;48.152;11.528;2023-02-25T17:57:08;10.40;39.90
3868;DHT22;1949;48.152;11.528;2023-02-25T18:03:07;10.40;39.80
3868;DHT22;1949;48.152;11.528;2023-02-25T18:05:55;10.20;39.80
3868;DHT22;1949;48.152;11.528;2023-02-25T18:08:26;10.10;39.80
3868;DHT22;1949;48.152;11.528;2023-02-25T18:13:36;10.00;40.40
3868;DHT22;1949;48.152;11.528;2023-02-25T18:19:10;10.00;40.50
3868;DHT22;1949;48.152;11.528;2023-02-25T18:21:46;10.00;40.40
3868;DHT22;1949;48.152;11.528;2023-02-25T18:24:34;10.00;40.70
3868;DHT22;1949;48.152;11.528;2023-02-25T18:27:20;10.10;40.70
3868;DHT22;1949;48.152;11.528;2023-02-25T18:29:53;10.10;40.80
3868;DHT22;1949;48.152;11.528;2023-02-25T18:32:23;10.10;40.70
3868;DHT22;1949;48.152;11.528;2023-02-25T18:34:49;10.10;40.70
3868;DHT22;1949;48.152;11.528;2023-02-25T18:37:20;10.20;40.80
3868;DHT22;1949;48.152;11.528;2023-02-25T18:39:50;10.10;40.90
3868;DHT22;1949;48.152;11.528;2023-02-25T18:42:17;10.20;40.90
3868;DHT22;1949;48.152;11.528;2023-02-25T18:44:45;10.20;40.90
3868;DHT22;1949;48.152;11.528;2023-02-25T18:47:11;10.20;40.80
3868;DHT22;1949;48.152;11.528;2023-02-25T18:49:38;10.20;40.70
3868;DHT22;1949;48.152;11.528;2023-02-25T18:52:08;10.20;40.80
3868;DHT22;1949;48.152;11.528;2023-02-25T18:54:35;10.20;40.80
3868;DHT22;1949;48.152;11.528;2023-02-25T18:57:39;10.20;41.00
3868;DHT22;1949;48.152;11.528;2023-02-25T18:59:59;10.20;41.10
3868;DHT22;1949;48.152;11.528;2023-02-25T19:02:31;10.20;41.10
3868;DHT22;1949;48.152;11.528;2023-02-25T19:05:00;10.20;41.00
3868;DHT22;1949;48.152;11.528;2023-02-25T19:07:29;10.20;41.00
3868;DHT22;1949;48.152;11.528;2023-02-25T19:09:55;10.30;41.10
3868;DHT22;1949;48.152;11.528;2023-02-25T19:12:23;10.20;41.00
3868;DHT22;1949;48.152;11.528;2023-02-25T19:15:05;10.30;41.10
3868;DHT22;1949;48.152;11.528;2023-02-25T19:17:33;10.20;41.00
3868;DHT22;1949;48.152;11.528;2023-02-25T19:20:01;10.30;41.00
3868;DHT22;1949;48.152;11.528;2023-02-25T19:22:27;10.20;40.90
3868;DHT22;1949;48.152;11.528;2023-02-25T19:24:52;10.20;41.00
3868;DHT22;1949;48.152;11.528;2023-02-25T19:27:22;10.20;41.00
3868;DHT22;1949;48.152;11.528;2023-02-25T19:29:54;10.20;41.00
3868;DHT22;1949;48.152;11.528;2023-02-25T19:32:26;10.20;41.00
3868;DHT22;1949;48.152;11.528;2023-02-25T19:35:03;10.20;41.00
3868;DHT22;1949;48.152;11.528;2023-02-25T19:37:29;10.20;41.10
3868;DHT22;1949;48.152;11.528;2023-02-25T19:39:57;10.20;41.10
3868;DHT22;1949;48.152;11.528;2023-02-25T19:42:33;10.20;41.10
3868;DHT22;1949;48.152;11.528;2023-02-25T19:45:03;10.20;41.20
3868;DHT22;1949;48.152;11.528;2023-02-25T19:47:32;10.20;41.10
3868;DHT22;1949;48.152;11.528;2023-02-25T19:49:59;10.20;41.10
3868;DHT22;1949;48.152;11.528;2023-02-25T19:52:35;10.20;41.00
3868;DHT22;1949;48.152;11.528;2023-02-25T19:55:04;10.20;41.10
3868;DHT22;1949;48.152;11.528;2023-02-25T19:57:37;10.10;41.10
3868;DHT22;1949;48.152;11.528;2023-02-25T20:00:06;10.10;41.20
3868;DHT22;1949;48.152;11.528;2023-02-25T20:02:33;10.10;41.10
3868;DHT22;1949;48.152;11.528;2023-02-25T20:04:59;10.20;41.10
3868;DHT22;1949;48.152;11.528;2023-02-25T20:07:35;10.10;41.00
3868;DHT22;1949;48.152;11.528;2023-02-25T20:10:03;10.00;40.80
3868;DHT22;1949;48.152;11.528;2023-02-25T20:12:29;9.90;41.90
3868;DHT22;1949;48.152;11.528;2023-02-25T20:14:56;9.90;42.00
3868;DHT22;1949;48.152;11.528;2023-02-25T20:17:24;9.80;42.00
3868;DHT22;1949;48.152;11.528;2023-02-25T20:19:52;9.90;42.20
3868;DHT22;1949;48.152;11.528;2023-02-25T20:22:21;9.90;42.80
3868;DHT22;1949;48.152;11.528;2023-02-25T20:24:50;9.90;42.40
3868;DHT22;1949;48.152;11.528;2023-02-25T20:27:19;9.90;42.30
3868;DHT22;1949;48.152;11.528;2023-02-25T20:29:48;10.00;41.30
3868;DHT22;1949;48.152;11.528;2023-02-25T20:32:20;9.80;42.50
3868;DHT22;1949;48.152;11.528;2023-02-25T20:34:49;9.90;42.40
3868;DHT22;1949;48.152;11.528;2023-02-25T20:37:20;9.90;42.40
3868;DHT22;1949;48.152;11.528;2023-02-25T20:39:58;9.90;42.20
3868;DHT22;1949;48.152;11.528;2023-02-25T20:42:29;9.80;42.20
3868;DHT22;1949;48.152;11.528;2023-02-25T20:44:56;9.80;42.10
3868;DHT22;1949;48.152;11.528;2023-02-25T20:47:27;9.60;41.60
3868;DHT22;1949;48.152;11.528;2023-02-25T20:49:54;9.40;42.00
3868;DHT22;1949;48.152;11.528;2023-02-25T20:52:20;9.40;42.40